首页
METAR-TAF:

METAR-TAF

机场 :

伊斯坦布尔 阿塔土克, 土耳其

阿塔蒂尔克国际机场

纬度: 40-58N, 经度: 028-49E, 海拔: 48米

当前天气观测

该预报发布于43分钟前的13:50 UTC
风速22节,风向北转西北
温度 6°C
湿度 87%
气压 1003 hPa
能見度: 8000
散云层高于1300英尺
阴天层高于3000英尺
小阵雨

METAR: LTBA 221350Z 33022KT 8000 -SHRA SCT013 OVC030 06/04 Q1003 NOSIG RMK RWY17L 34020KT RWY05 32022KT RWY23 35017KT

时间: 17:33 (14:33 UTC)

预报

该预报发布于3小时和53分钟前的10:40 UTC
预报有效从22日的 12点(UTC)到 23日的 18点(UTC)
风速20节,风向,有时为35节阵风
能见度10公里或以上
散云层高于1500英尺
多云层高于2500英尺
小阵雨
成为
从 22日的 22点(UTC)到 23日的 02点(UTC)
风速15节,风向,有时为25节阵风
几率 30% :
短暂存在
从 23日的 02点(UTC)到 23日的 06点(UTC)
小阵雪, 雨

TAF: LTBA 221040Z 2212/2318 35020G35KT 9999 -SHRA SCT015 BKN025 BECMG 2222/2302 35015G25KT PROB30 TEMPO 2302/2306 -SHSNRA

超过4000个机场的气象观测和天气预报(METAR&TAF报告)。

可查询的气象台以黄色和红色小点在地图上表示。

将鼠标移到小点上方,可查看气象台名称。

然后点击查看天气观测和预报。

如需切换地图:点击带黑十字的绿色按钮放大地图;点击带横线的绿色按钮缩小地图;或者点击绿色箭头查看邻近地区的地图。


METAR-TAF: